Time;durP1;ratioP1;P1;durP2;ratioP2;P2;SDS_P1;SDS_P2;PMS_P1;PMS_P2;Temp;Humidity;BMP_temperature;BMP_pressure;BME280_temperature;BME280_humidity;BME280_pressure;Samples;Min_cycle;Max_cycle;Signal;HPM_P1;HPM_P2
2022/07/16 00:02:56;;;;;;;8.32;2.95;;;;;;;23.60;36.78;98882.78;5083189;28;20134;-74
2022/07/16 00:05:21;;;;;;;8.77;2.92;;;;;;;23.46;36.90;98871.56;5048409;28;20134;-74
2022/07/16 00:07:47;;;;;;;9.57;2.35;;;;;;;23.37;37.47;98875.84;5064837;28;20089;-74
2022/07/16 00:10:13;;;;;;;11.23;3.35;;;;;;;23.46;37.47;98881.56;5048878;28;20082;-74
2022/07/16 00:12:39;;;;;;;8.95;2.83;;;;;;;23.38;37.51;98879.34;5065017;28;20043;-74
2022/07/16 00:15:05;;;;;;;21.38;3.20;;;;;;;23.41;37.53;98878.81;5082152;28;20036;-75
2022/07/16 00:17:31;;;;;;;7.82;2.90;;;;;;;23.31;38.15;98886.88;5048775;28;20055;-75
2022/07/16 00:19:57;;;;;;;7.22;3.10;;;;;;;23.42;38.03;98891.31;5048641;28;20047;-74
2022/07/16 00:22:23;;;;;;;8.85;2.45;;;;;;;23.46;38.08;98887.81;5048387;28;20032;-75
2022/07/16 00:24:49;;;;;;;9.00;2.80;;;;;;;23.56;38.08;98889.78;5080865;28;20051;-74
2022/07/16 00:27:15;;;;;;;13.05;3.30;;;;;;;23.43;37.93;98891.06;5080327;28;20040;-73
2022/07/16 00:29:40;;;;;;;8.45;2.45;;;;;;;23.66;37.50;98887.16;5063373;28;20952;-74
2022/07/16 00:32:06;;;;;;;6.18;2.90;;;;;;;23.70;37.33;98874.69;5046361;28;20176;-74
2022/07/16 00:34:33;;;;;;;8.77;3.10;;;;;;;23.77;37.73;98880.72;5063060;28;20047;-74
2022/07/16 00:36:59;;;;;;;10.68;2.90;;;;;;;23.78;37.29;98879.66;5063571;28;20124;-74
2022/07/16 00:39:24;;;;;;;10.13;3.33;;;;;;;23.71;37.27;98887.19;5063677;28;20176;-74
2022/07/16 00:41:51;;;;;;;11.05;3.65;;;;;;;23.69;37.27;98894.78;5063902;28;20043;-76
2022/07/16 00:44:18;;;;;;;10.88;3.85;;;;;;;23.90;37.07;98888.41;5080141;28;20526;-75
2022/07/16 00:46:46;;;;;;;8.35;2.92;;;;;;;23.81;37.29;98898.09;5096272;28;20044;-74
2022/07/16 00:49:12;;;;;;;9.68;3.00;;;;;;;23.78;37.27;98901.34;5096524;28;20052;-73
2022/07/16 00:51:44;;;;;;;10.05;3.22;;;;;;;23.94;37.28;98901.16;5079256;28;20047;-74
2022/07/16 00:54:11;;;;;;;7.68;3.20;;;;;;;23.45;37.80;98880.75;5063073;28;20043;-74
2022/07/16 00:56:37;;;;;;;7.25;3.00;;;;;;;23.42;37.71;98899.44;5063043;28;20028;-74
2022/07/16 00:59:03;;;;;;;9.20;3.30;;;;;;;23.34;37.88;98892.59;5079551;28;20044;-73
2022/07/16 01:01:29;;;;;;;8.63;2.88;;;;;;;23.31;37.92;98882.25;5062890;28;20237;-74
2022/07/16 01:03:55;;;;;;;11.77;3.10;;;;;;;23.36;37.96;98895.06;5062848;28;20494;-74
2022/07/16 01:06:22;;;;;;;7.97;3.10;;;;;;;23.32;38.14;98893.91;5063170;28;20042;-74
2022/07/16 01:08:49;;;;;;;8.65;2.60;;;;;;;23.43;37.78;98903.78;5078956;28;20043;-74
2022/07/16 01:11:17;;;;;;;6.40;2.80;;;;;;;23.50;37.75;98896.25;5029570;28;20056;-75
2022/07/16 01:13:45;;;;;;;13.18;2.88;;;;;;;23.38;38.17;98901.84;5062691;28;20602;-74
2022/07/16 01:16:12;;;;;;;6.63;2.67;;;;;;;23.43;38.10;98901.91;5079120;28;20495;-76
2022/07/16 01:18:39;;;;;;;8.27;2.65;;;;;;;23.52;38.23;98904.94;5062580;28;20043;-74
2022/07/16 01:21:05;;;;;;;12.90;2.58;;;;;;;23.52;37.83;98907.66;5062559;28;20050;-74
2022/07/16 01:23:31;;;;;;;6.13;2.60;;;;;;;23.46;37.78;98904.09;5079083;28;20047;-74
2022/07/16 01:25:57;;;;;;;8.65;2.58;;;;;;;23.44;37.94;98910.81;5061806;28;20043;-74
2022/07/16 01:28:23;;;;;;;7.85;2.50;;;;;;;23.42;38.11;98880.47;5079034;28;20043;-74
2022/07/16 01:30:49;;;;;;;9.65;2.45;;;;;;;23.67;37.33;98913.19;5095354;28;20399;-74
2022/07/16 01:33:32;;;;;;;8.52;2.65;;;;;;;23.91;36.97;98917.19;5045575;28;20142;-74
2022/07/16 01:36:04;;;;;;;6.30;2.30;;;;;;;23.92;37.26;98913.38;5095719;28;20047;-74
2022/07/16 01:38:30;;;;;;;15.95;2.70;;;;;;;23.71;37.40;98919.75;5063223;28;20054;-75
2022/07/16 01:40:56;;;;;;;10.65;2.15;;;;;;;23.59;37.14;98919.09;5080705;28;20078;-74
2022/07/16 01:43:24;;;;;;;6.63;2.05;;;;;;;23.71;37.13;98900.75;5063511;28;20044;-73
2022/07/16 01:45:50;;;;;;;5.32;2.55;;;;;;;23.49;37.47;98925.25;5061825;28;20461;-73
2022/07/16 01:48:16;;;;;;;11.95;2.10;;;;;;;23.67;37.12;98918.59;5045166;28;20039;-74
2022/07/16 01:50:43;;;;;;;5.63;2.00;;;;;;;23.79;37.18;98919.22;5045193;28;20040;-74
2022/07/16 01:53:10;;;;;;;7.53;2.38;;;;;;;23.66;37.11;98922.41;5078978;28;20051;-73
2022/07/16 01:55:36;;;;;;;5.75;2.20;;;;;;;23.70;37.50;98918.91;5062590;28;20165;-74
2022/07/16 01:58:03;;;;;;;7.90;2.30;;;;;;;23.86;37.29;98919.84;5062424;28;20100;-75
2022/07/16 02:00:31;;;;;;;6.65;2.67;;;;;;;23.77;37.33;98924.91;5081365;28;20151;-74
2022/07/16 02:02:57;;;;;;;8.50;2.40;;;;;;;23.56;37.19;98916.88;5100791;28;20492;-74
2022/07/16 02:05:23;;;;;;;7.28;2.42;;;;;;;23.48;37.15;98917.38;5084566;28;20047;-74
2022/07/16 02:07:49;;;;;;;5.95;2.20;;;;;;;23.52;37.59;98919.31;5064469;28;20414;-75
2022/07/16 02:10:15;;;;;;;9.00;2.60;;;;;;;23.56;37.54;98927.72;5061487;28;20040;-74
2022/07/16 02:12:40;;;;;;;6.97;2.67;;;;;;;23.61;37.25;98922.34;5045874;28;20084;-75
2022/07/16 02:15:07;;;;;;;4.20;2.20;;;;;;;23.69;36.69;98911.03;5062129;28;20529;-74
2022/07/16 02:17:34;;;;;;;6.90;2.25;;;;;;;23.91;36.74;98930.75;5044848;28;20075;-74
2022/07/16 02:20:01;;;;;;;6.88;2.15;;;;;;;23.78;36.79;98928.47;5077622;28;20039;-74
2022/07/16 02:22:26;;;;;;;6.10;2.30;;;;;;;23.68;36.89;98926.47;5062140;28;20173;-74
2022/07/16 02:24:52;;;;;;;11.45;2.50;;;;;;;23.70;37.00;98934.34;5045760;28;20133;-74
2022/07/16 02:27:18;;;;;;;4.72;2.50;;;;;;;23.72;37.03;98948.47;5062148;28;20096;-74
2022/07/16 02:29:44;;;;;;;5.20;2.13;;;;;;;23.41;37.52;98941.16;5045104;28;20047;-73
2022/07/16 02:32:09;;;;;;;6.32;2.50;;;;;;;23.05;37.92;98907.44;5045055;28;20062;-74
2022/07/16 02:34:35;;;;;;;5.75;2.50;;;;;;;23.45;37.69;98936.88;5061096;28;20162;-74
2022/07/16 02:37:01;;;;;;;9.77;2.40;;;;;;;23.46;37.48;98933.06;5061861;28;20046;-74
2022/07/16 02:39:27;;;;;;;8.40;2.45;;;;;;;23.46;37.81;98943.91;5062313;28;20532;-74
2022/07/16 02:41:55;;;;;;;7.00;2.38;;;;;;;23.42;37.31;98918.41;5063258;28;20039;-75
2022/07/16 02:44:23;;;;;;;10.43;2.90;;;;;;;23.64;37.27;98941.66;5079596;28;20044;-74
2022/07/16 02:46:49;;;;;;;10.27;2.70;;;;;;;23.66;37.46;98942.22;5061764;28;20051;-74
2022/07/16 02:49:15;;;;;;;11.70;2.55;;;;;;;23.76;37.12;98941.44;5060933;28;20135;-74
2022/07/16 02:51:41;;;;;;;9.65;2.60;;;;;;;23.81;37.27;98946.91;5060826;28;20112;-74
2022/07/16 02:54:06;;;;;;;5.15;2.40;;;;;;;23.81;37.31;98936.06;5078497;28;20040;-74
2022/07/16 02:56:32;;;;;;;10.13;2.67;;;;;;;24.08;36.96;98945.78;5045081;28;20100;-74
2022/07/16 02:58:58;;;;;;;5.75;2.13;;;;;;;23.89;37.13;98949.16;5044884;28;20040;-74
2022/07/16 03:01:24;;;;;;;7.20;2.50;;;;;;;23.74;37.72;98949.06;5112521;28;20067;-74
2022/07/16 03:03:49;;;;;;;7.93;2.67;;;;;;;23.71;37.71;98947.66;5076990;28;20101;-74
2022/07/16 03:06:15;;;;;;;5.82;2.10;;;;;;;23.80;37.65;98946.09;5060293;28;20416;-74
2022/07/16 03:08:48;;;;;;;16.02;2.47;;;;;;;23.86;37.22;98955.09;5076907;28;20131;-74
2022/07/16 03:11:15;;;;;;;5.60;2.35;;;;;;;23.99;37.29;98943.81;5044676;28;20055;-74
2022/07/16 03:13:41;;;;;;;8.23;2.63;;;;;;;23.91;37.39;98960.56;5077191;28;20517;-74
2022/07/16 03:16:07;;;;;;;5.63;2.47;;;;;;;23.87;37.35;98959.44;5076509;28;20047;-74
2022/07/16 03:18:35;;;;;;;13.00;2.65;;;;;;;24.06;37.68;98964.25;5060072;28;20036;-75
2022/07/16 03:21:01;;;;;;;10.25;2.30;;;;;;;23.72;38.07;98954.72;5076638;28;20446;-74
2022/07/16 03:23:27;;;;;;;13.18;2.63;;;;;;;23.57;38.39;98962.72;5060180;28;20036;-74
2022/07/16 03:25:52;;;;;;;11.35;2.67;;;;;;;23.64;38.27;98974.19;5043250;28;20046;-74
2022/07/16 03:28:18;;;;;;;5.47;2.45;;;;;;;23.72;38.37;98964.75;5060873;28;20129;-74
2022/07/16 03:30:44;;;;;;;6.80;2.35;;;;;;;23.72;38.44;98976.41;5093315;28;20047;-74
2022/07/16 03:33:10;;;;;;;10.60;2.50;;;;;;;23.88;38.44;98980.88;5060137;28;20066;-74
2022/07/16 03:35:36;;;;;;;8.43;2.72;;;;;;;23.95;38.10;98986.91;5059696;28;20042;-72
2022/07/16 03:40:46;;;;;;;11.05;2.42;;;;;;;24.03;38.05;98977.50;5079560;28;20042;-74
2022/07/16 03:43:11;;;;;;;9.70;2.83;;;;;;;23.88;38.14;98980.88;5077340;28;20051;-75
2022/07/16 03:45:37;;;;;;;9.80;2.40;;;;;;;24.17;37.81;98975.97;5095311;28;20518;-75
2022/07/16 03:48:03;;;;;;;4.07;2.10;;;;;;;24.41;37.58;98990.78;5061358;28;20050;-74
2022/07/16 03:50:29;;;;;;;6.88;2.22;;;;;;;24.26;37.36;98961.63;5044781;28;20527;-74
2022/07/16 03:52:55;;;;;;;6.00;1.90;;;;;;;24.41;37.36;98988.91;5060800;28;20138;-74
2022/07/16 03:55:21;;;;;;;5.47;2.03;;;;;;;24.39;37.38;98991.03;5043765;28;20410;-73
2022/07/16 03:57:47;;;;;;;5.63;1.92;;;;;;;24.49;37.29;98993.81;5060000;28;20399;-74
2022/07/16 04:00:13;;;;;;;3.65;1.70;;;;;;;24.70;36.67;98989.34;5043831;28;20047;-74
2022/07/16 04:02:39;;;;;;;7.50;1.85;;;;;;;24.71;36.15;98990.97;5060037;28;20460;-74
2022/07/16 04:05:05;;;;;;;4.45;1.80;;;;;;;24.69;35.96;98977.66;5042610;28;20143;-74
2022/07/16 04:07:31;;;;;;;8.38;1.95;;;;;;;24.96;36.02;98992.97;5059412;28;20138;-74
2022/07/16 04:09:57;;;;;;;1.80;1.38;;;;;;;24.93;35.57;98997.03;5059344;28;20067;-74
2022/07/16 04:12:23;;;;;;;8.80;1.70;;;;;;;25.00;35.11;99004.94;5042770;28;20386;-74
2022/07/16 04:14:50;;;;;;;6.47;1.75;;;;;;;25.20;34.96;99005.81;5059553;28;20055;-74
2022/07/16 04:17:16;;;;;;;6.35;1.67;;;;;;;25.10;35.31;99008.53;5043144;28;20410;-73
2022/07/16 04:19:42;;;;;;;5.10;1.45;;;;;;;25.20;35.24;99013.19;5059671;28;20043;-73
2022/07/16 04:22:08;;;;;;;3.80;1.48;;;;;;;25.22;34.71;99006.38;5043166;28;20044;-73
2022/07/16 04:24:34;;;;;;;5.82;1.48;;;;;;;25.32;34.80;99020.00;5042921;28;20039;-73
2022/07/16 04:26:59;;;;;;;5.75;1.88;;;;;;;25.30;34.65;99015.91;5059472;28;20047;-73
2022/07/16 04:29:25;;;;;;;4.65;1.35;;;;;;;25.37;34.46;99019.25;5042442;28;20070;-73
2022/07/16 04:31:51;;;;;;;5.28;1.50;;;;;;;25.51;34.37;99021.16;5042386;28;20043;-73
2022/07/16 04:34:17;;;;;;;3.67;1.35;;;;;;;25.47;33.59;98990.16;5042700;28;20058;-73
2022/07/16 04:36:43;;;;;;;3.20;1.23;;;;;;;25.58;33.62;99021.72;5043227;28;20503;-73
2022/07/16 04:39:08;;;;;;;3.75;1.30;;;;;;;25.56;33.75;99028.50;5076862;28;20138;-73
2022/07/16 04:41:34;;;;;;;4.13;1.02;;;;;;;25.57;33.49;99013.84;5060266;28;20039;-73
2022/07/16 04:44:00;;;;;;;3.83;1.10;;;;;;;25.64;33.94;99019.81;5080322;28;20047;-73
2022/07/16 04:46:26;;;;;;;6.20;1.60;;;;;;;25.77;33.75;99016.59;5096454;28;20047;-72
2022/07/16 04:48:52;;;;;;;3.40;1.20;;;;;;;25.81;33.84;99015.78;5046524;28;20074;-73
2022/07/16 04:51:20;;;;;;;5.45;1.30;;;;;;;26.01;33.50;99015.81;5063930;28;20063;-74
2022/07/16 04:53:46;;;;;;;7.82;1.33;;;;;;;26.16;33.15;99026.69;5046325;28;20392;-74
2022/07/16 04:56:12;;;;;;;3.47;1.05;;;;;;;26.17;32.90;99028.31;5046114;28;20047;-73
2022/07/16 04:58:38;;;;;;;4.45;1.10;;;;;;;26.33;32.65;99029.94;5045859;28;20051;-74
2022/07/16 05:01:05;;;;;;;4.07;1.08;;;;;;;26.38;32.86;99015.50;5063368;28;20596;-74
2022/07/16 05:03:32;;;;;;;4.18;1.38;;;;;;;26.48;32.70;99023.63;5062849;28;20123;-74
2022/07/16 05:05:57;;;;;;;4.80;1.10;;;;;;;26.48;32.70;99012.72;5079363;28;20534;-74
2022/07/16 05:08:23;;;;;;;2.08;1.10;;;;;;;26.60;32.80;99024.13;5062789;28;20142;-74
2022/07/16 05:10:49;;;;;;;6.47;0.98;;;;;;;26.70;32.90;99031.50;5045907;28;20055;-74
2022/07/16 05:13:15;;;;;;;3.65;1.20;;;;;;;26.52;33.06;99035.63;5062089;28;20031;-74
2022/07/16 05:15:41;;;;;;;5.28;1.42;;;;;;;26.70;32.19;99026.88;5061810;28;20088;-73
2022/07/16 05:18:08;;;;;;;3.72;1.40;;;;;;;26.82;32.31;99035.56;5096931;28;20056;-73
2022/07/16 05:20:34;;;;;;;2.58;1.02;;;;;;;26.79;32.41;99035.28;5047708;28;20082;-73
2022/07/16 05:22:59;;;;;;;6.65;1.30;;;;;;;26.80;32.19;99034.22;5063542;28;20078;-73
2022/07/16 05:25:26;;;;;;;2.03;1.10;;;;;;;26.77;32.07;99029.31;5079309;28;20051;-74
2022/07/16 05:27:52;;;;;;;2.85;1.00;;;;;;;26.96;31.80;99039.34;5079102;28;20047;-74
2022/07/16 05:30:18;;;;;;;8.23;1.40;;;;;;;26.96;32.23;99017.53;5062364;28;20043;-74
2022/07/16 05:32:44;;;;;;;5.28;1.30;;;;;;;27.07;32.45;99038.22;5062225;28;20558;-74
2022/07/16 05:35:12;;;;;;;8.25;1.63;;;;;;;27.23;31.74;99037.03;5096148;28;20044;-74
2022/07/16 05:37:38;;;;;;;5.38;1.20;;;;;;;27.13;31.98;99037.09;5079495;28;20168;-74
2022/07/16 05:40:05;;;;;;;8.20;1.40;;;;;;;27.25;31.57;99039.47;5062554;28;20475;-74
2022/07/16 05:42:31;;;;;;;3.40;1.15;;;;;;;27.23;31.76;99041.69;5062640;28;20411;-74
2022/07/16 05:44:57;;;;;;;4.10;1.20;;;;;;;27.39;31.57;99048.69;5062456;28;20040;-74
2022/07/16 05:47:22;;;;;;;4.53;1.20;;;;;;;27.43;31.14;99042.41;5045558;28;20126;-74
2022/07/16 05:49:48;;;;;;;4.82;1.20;;;;;;;27.45;31.39;99045.69;5061796;28;20051;-74
2022/07/16 05:52:14;;;;;;;4.32;0.93;;;;;;;27.22;31.96;99049.03;5045716;28;20123;-73
2022/07/16 05:54:40;;;;;;;5.22;1.13;;;;;;;27.37;31.32;99050.91;5063513;28;20043;-74
2022/07/16 05:57:06;;;;;;;3.60;0.98;;;;;;;27.55;30.88;99053.81;5080089;28;20468;-73
2022/07/16 05:59:31;;;;;;;3.60;1.20;;;;;;;27.51;31.26;99044.53;5063826;28;20048;-74
2022/07/16 06:01:57;;;;;;;7.70;1.00;;;;;;;27.35;31.43;99059.38;5046665;28;20035;-74
2022/07/16 06:04:23;;;;;;;6.45;1.10;;;;;;;27.45;31.22;99066.66;5045518;28;20126;-74
2022/07/16 06:06:49;;;;;;;3.80;1.00;;;;;;;27.38;30.79;99058.00;5061438;28;20036;-74
2022/07/16 06:09:15;;;;;;;2.17;0.98;;;;;;;27.33;30.75;99058.84;5094653;28;20040;-74
2022/07/16 06:11:41;;;;;;;4.35;1.20;;;;;;;27.50;31.01;99055.75;5061062;28;20051;-74
2022/07/16 06:14:07;;;;;;;4.65;1.23;;;;;;;27.58;30.55;99057.88;5061387;28;20058;-73
2022/07/16 06:16:32;;;;;;;1.65;0.90;;;;;;;27.75;30.12;99061.84;5061352;28;20080;-73
2022/07/16 06:18:58;;;;;;;2.40;1.00;;;;;;;27.90;30.31;99063.69;5044993;28;20503;-74
2022/07/16 06:21:25;;;;;;;3.88;0.90;;;;;;;27.66;29.50;99069.00;5045340;28;20133;-73
2022/07/16 06:23:51;;;;;;;3.08;0.95;;;;;;;27.43;29.30;99052.53;5045679;28;20453;-74
2022/07/16 06:26:17;;;;;;;2.08;1.10;;;;;;;27.55;29.11;99066.63;5045610;28;20036;-74
2022/07/16 06:28:43;;;;;;;3.70;1.42;;;;;;;27.69;29.86;99065.72;5078707;28;20085;-74
2022/07/16 06:31:09;;;;;;;3.47;1.00;;;;;;;27.97;29.92;99058.72;5044675;28;20102;-73
2022/07/16 06:33:34;;;;;;;3.55;1.15;;;;;;;28.17;30.20;99057.78;5078529;28;20043;-74
2022/07/16 06:36:00;;;;;;;2.03;0.90;;;;;;;28.21;29.13;99050.63;5078730;28;20043;-73
2022/07/16 06:38:26;;;;;;;2.40;1.17;;;;;;;28.26;29.23;99056.06;5060691;28;20040;-74
2022/07/16 06:40:52;;;;;;;3.38;1.13;;;;;;;28.20;28.52;99073.59;5060639;28;20066;-74
2022/07/16 06:43:17;;;;;;;5.93;0.95;;;;;;;28.54;28.24;99061.53;5077670;28;20063;-75
2022/07/16 06:45:44;;;;;;;2.67;0.98;;;;;;;28.68;28.37;99056.19;5061519;28;20542;-74
2022/07/16 06:48:10;;;;;;;2.33;1.30;;;;;;;28.78;27.67;99064.31;5094816;28;20071;-74
2022/07/16 06:50:36;;;;;;;2.35;1.05;;;;;;;28.95;28.03;99060.03;5061054;28;20043;-74
2022/07/16 06:53:04;;;;;;;2.45;1.20;;;;;;;29.23;27.86;99066.56;5043963;28;20046;-74
2022/07/16 06:55:30;;;;;;;3.38;1.20;;;;;;;28.91;27.28;99058.13;5093995;28;20159;-74
2022/07/16 06:57:56;;;;;;;4.75;1.05;;;;;;;28.85;27.35;99062.03;5044030;28;20549;-74
2022/07/16 07:00:22;;;;;;;3.05;1.10;;;;;;;28.73;27.03;99056.97;5060876;28;20043;-75
2022/07/16 07:02:47;;;;;;;2.63;1.20;;;;;;;29.23;27.66;99061.09;5094112;28;20537;-74
2022/07/16 07:05:16;;;;;;;2.42;1.08;;;;;;;29.55;27.48;99067.47;5043188;28;20134;-77
2022/07/16 07:07:44;;;;;;;2.30;1.10;;;;;;;29.61;26.90;99063.53;5077412;28;20583;-74
2022/07/16 07:10:19;;;;;;;3.92;1.30;;;;;;;29.77;26.35;99066.13;5044439;28;20085;-74
2022/07/16 07:12:45;;;;;;;1.90;1.15;;;;;;;29.98;26.58;99062.78;5062588;28;20047;-74
2022/07/16 07:15:11;;;;;;;4.53;1.10;;;;;;;30.29;26.36;99068.59;5095108;28;20142;-74
2022/07/16 07:17:37;;;;;;;3.10;1.30;;;;;;;30.30;25.63;99057.34;5081013;28;20128;-74
2022/07/16 07:20:05;;;;;;;5.32;1.00;;;;;;;30.28;25.41;99072.44;5085458;28;20054;-74
2022/07/16 07:22:31;;;;;;;3.28;1.20;;;;;;;30.60;24.44;99058.72;5103914;28;20043;-73
2022/07/16 07:24:57;;;;;;;3.80;1.10;;;;;;;30.80;23.53;99063.84;5053727;28;20058;-74
2022/07/16 07:27:23;;;;;;;3.45;0.90;;;;;;;31.30;22.97;99062.88;5062754;28;20040;-74
2022/07/16 07:29:49;;;;;;;4.28;2.72;;;;;;;31.85;23.47;99060.84;5060352;28;20135;-75
2022/07/16 07:32:15;;;;;;;2.15;0.98;;;;;;;31.56;22.71;99077.69;5043336;28;20043;-80
2022/07/16 07:34:40;;;;;;;6.30;1.27;;;;;;;32.17;22.32;99088.06;5043624;28;20047;-74
2022/07/16 07:37:07;;;;;;;1.27;0.95;;;;;;;32.70;21.55;99069.72;5093527;28;20499;-74
2022/07/16 07:39:34;;;;;;;2.15;1.10;;;;;;;33.56;20.61;99070.88;5043401;28;20058;-75
2022/07/16 07:41:59;;;;;;;3.47;1.10;;;;;;;34.52;20.09;99077.69;5076613;28;20582;-74
2022/07/16 07:44:25;;;;;;;2.03;1.05;;;;;;;34.90;19.26;99075.84;5043113;28;20134;-75
2022/07/16 07:46:51;;;;;;;3.85;1.10;;;;;;;37.18;17.57;99067.16;5059547;28;20040;-74
2022/07/16 07:49:17;;;;;;;3.22;2.08;;;;;;;39.47;15.46;99078.16;5042789;28;20067;-75
2022/07/16 07:51:43;;;;;;;4.00;1.00;;;;;;;40.91;13.50;99078.44;5059945;28;20040;-75
2022/07/16 07:54:08;;;;;;;4.93;1.10;;;;;;;42.14;12.62;99085.94;5092893;28;20595;-75
2022/07/16 07:56:34;;;;;;;2.92;0.90;;;;;;;41.23;12.17;99070.59;5043221;28;20066;-75
2022/07/16 07:59:00;;;;;;;2.28;0.93;;;;;;;42.80;11.35;99068.38;5059600;28;20068;-74
2022/07/16 08:01:26;;;;;;;2.13;0.90;;;;;;;42.40;11.92;99080.28;5042989;28;20510;-75
2022/07/16 08:03:52;;;;;;;5.78;1.30;;;;;;;39.06;13.56;99058.47;5059656;28;20040;-75
2022/07/16 08:06:18;;;;;;;2.70;0.85;;;;;;;40.03;13.76;99051.63;5059924;28;20527;-75
2022/07/16 08:08:43;;;;;;;4.15;1.50;;;;;;;41.41;12.89;99069.72;5060232;28;20143;-75
2022/07/16 08:11:10;;;;;;;6.85;1.05;;;;;;;43.41;11.08;99071.28;5043522;28;20094;-75
2022/07/16 08:13:35;;;;;;;4.80;1.63;;;;;;;45.38;9.67;99072.81;5043841;28;20146;-75
2022/07/16 08:16:01;;;;;;;3.35;0.80;;;;;;;45.48;8.70;99074.03;5060163;28;20154;-75
2022/07/16 08:18:27;;;;;;;3.72;1.10;;;;;;;44.24;9.15;99075.78;5064038;28;20566;-74
2022/07/16 08:20:54;;;;;;;5.10;0.98;;;;;;;43.85;9.88;99087.97;5080348;28;20143;-75
2022/07/16 08:25:44;;;;;;;4.75;0.85;;;;;;;42.58;10.18;99083.28;5046804;28;20138;-75
2022/07/16 08:26:05;;;;;;;3.88;1.00;;;;;;;43.71;9.65;99074.72;5065944;28;20043;-75
2022/07/16 08:28:31;;;;;;;3.67;1.00;;;;;;;43.63;9.93;99073.06;5046686;28;20146;-76
2022/07/16 08:30:57;;;;;;;1.92;1.05;;;;;;;43.10;10.05;99047.50;5046464;28;20100;-75
2022/07/16 08:33:23;;;;;;;5.03;1.20;;;;;;;43.36;10.12;99071.66;5046249;28;20036;-76
2022/07/16 08:35:48;;;;;;;2.28;1.00;;;;;;;43.85;9.50;99082.38;5062917;28;20047;-76
2022/07/16 08:38:14;;;;;;;2.15;1.13;;;;;;;44.41;9.11;99043.47;5079812;28;20384;-75
2022/07/16 08:40:42;;;;;;;4.93;1.15;;;;;;;45.46;8.77;99068.81;5046411;28;20039;-76
2022/07/16 08:43:08;;;;;;;2.92;1.10;;;;;;;44.33;9.29;99055.84;5062537;28;20039;-75
2022/07/16 08:45:36;;;;;;;3.70;1.15;;;;;;;45.46;9.02;99070.81;5062851;28;20046;-76
2022/07/16 08:48:02;;;;;;;2.58;0.98;;;;;;;45.82;8.63;99061.16;5062861;28;20050;-76
2022/07/16 08:50:28;;;;;;;4.35;1.20;;;;;;;45.40;8.46;99066.81;5062362;28;20046;-75
2022/07/16 08:52:56;;;;;;;6.10;2.40;;;;;;;47.20;7.80;99074.03;5046040;28;20043;-75
2022/07/16 08:55:23;;;;;;;3.75;0.80;;;;;;;45.62;8.18;99065.59;5062508;28;20543;-76
2022/07/16 08:57:49;;;;;;;6.32;0.90;;;;;;;45.67;8.92;99059.56;5078981;28;20042;-75
2022/07/16 09:00:16;;;;;;;2.92;0.88;;;;;;;46.83;8.10;99059.84;5079542;28;20562;-75
2022/07/16 09:02:41;;;;;;;3.85;0.98;;;;;;;46.93;7.35;99058.19;5079492;28;20035;-75
2022/07/16 09:05:08;;;;;;;3.90;1.02;;;;;;;45.52;8.30;99070.00;5063092;28;20530;-76
2022/07/16 09:07:35;;;;;;;5.32;1.10;;;;;;;45.37;8.48;99057.19;5096597;28;20559;-76
2022/07/16 09:10:03;;;;;;;2.08;0.95;;;;;;;43.86;9.43;99045.63;5063150;28;20142;-75
2022/07/16 09:12:42;;;;;;;3.20;0.90;;;;;;;45.82;8.94;99059.16;5079212;28;20564;-75
2022/07/16 09:15:28;;;;;;;1.83;1.00;;;;;;;46.09;8.04;99067.84;5063197;28;20123;-75
2022/07/16 09:18:15;;;;;;;2.55;0.93;;;;;;;46.35;8.07;99063.75;5115282;28;20051;-76
2022/07/16 09:20:48;;;;;;;1.80;0.82;;;;;;;48.28;6.77;99070.50;5079709;28;20039;-75
2022/07/16 09:23:22;;;;;;;2.03;0.90;;;;;;;48.30;6.79;99063.22;5080005;28;20140;-76
2022/07/16 09:25:53;;;;;;;2.45;1.25;;;;;;;47.63;6.98;99061.19;5062949;28;20123;-75
2022/07/16 09:28:20;;;;;;;3.05;1.52;;;;;;;46.91;7.52;99078.28;5095034;28;20043;-75
2022/07/16 09:30:46;;;;;;;1.75;0.70;;;;;;;43.29;9.17;99068.03;5062549;28;20039;-75
2022/07/16 09:33:15;;;;;;;1.55;0.90;;;;;;;40.77;11.24;99043.94;5045068;28;20044;-75
2022/07/16 09:35:42;;;;;;;1.60;0.90;;;;;;;37.87;13.59;99076.13;5061746;28;20361;-75
2022/07/16 09:38:09;;;;;;;2.17;1.00;;;;;;;39.24;13.01;99045.81;5061931;28;20051;-76
2022/07/16 09:40:36;;;;;;;3.47;0.85;;;;;;;39.96;12.15;99050.66;5062001;28;20049;-75
2022/07/16 09:43:15;;;;;;;1.88;1.30;;;;;;;40.81;12.53;99040.03;5061708;28;20046;-75
2022/07/16 09:45:43;;;;;;;6.68;1.40;;;;;;;43.63;10.28;99064.69;5061795;28;20040;-76
2022/07/16 09:48:28;;;;;;;2.78;0.90;;;;;;;44.01;8.46;99058.50;5095679;28;20058;-75
2022/07/16 09:51:11;;;;;;;3.80;0.88;;;;;;;43.73;8.97;99063.13;5062565;28;20499;-75
2022/07/16 09:53:38;;;;;;;4.80;1.20;;;;;;;45.29;8.33;99068.78;5045848;28;20039;-75
2022/07/16 09:56:06;;;;;;;7.20;1.13;;;;;;;45.81;7.66;99059.56;5079073;28;20071;-75
2022/07/16 09:58:36;;;;;;;2.85;0.88;;;;;;;43.86;8.72;99069.97;5095928;28;20483;-76
2022/07/16 10:01:04;;;;;;;2.30;0.90;;;;;;;43.31;9.70;99072.03;5062197;28;20047;-75
2022/07/16 10:03:29;;;;;;;1.95;1.10;;;;;;;43.26;9.71;99066.00;5078708;28;20044;-75
2022/07/16 10:05:56;;;;;;;7.18;1.10;;;;;;;43.77;9.83;99035.97;5045699;28;20039;-75
2022/07/16 10:08:25;;;;;;;2.92;1.00;;;;;;;45.33;8.43;99061.19;5062648;28;20050;-76
2022/07/16 10:10:51;;;;;;;6.00;1.10;;;;;;;46.21;8.21;99055.41;5045502;28;20055;-75
2022/07/16 10:13:23;;;;;;;1.48;0.70;;;;;;;45.92;7.53;99068.72;5062087;28;20079;-76
2022/07/16 10:15:49;;;;;;;4.10;1.00;;;;;;;47.23;7.36;99061.16;5078925;28;20475;-76
2022/07/16 10:18:42;;;;;;;4.03;1.00;;;;;;;48.14;6.93;99073.47;5078402;28;20074;-75
2022/07/16 10:21:20;;;;;;;1.52;1.02;;;;;;;47.33;6.65;99063.88;5077795;28;20109;-75
2022/07/16 10:23:51;;;;;;;2.00;0.80;;;;;;;46.26;7.14;99052.94;5044688;28;20487;-75
2022/07/16 10:26:21;;;;;;;1.38;0.80;;;;;;;46.31;7.72;99060.97;5061243;28;20039;-74
2022/07/16 10:28:51;;;;;;;0.90;0.77;;;;;;;45.89;7.55;99050.69;5077910;28;20039;-76
2022/07/16 10:31:37;;;;;;;5.00;1.00;;;;;;;46.32;7.29;99056.94;5061412;28;20043;-75
2022/07/16 10:34:15;;;;;;;3.22;1.13;;;;;;;44.28;8.82;99043.03;5094958;28;20582;-76
2022/07/16 10:36:52;;;;;;;3.20;1.00;;;;;;;43.76;8.91;99049.19;5060841;28;20047;-75
2022/07/16 10:39:19;;;;;;;1.92;0.95;;;;;;;45.11;8.32;99043.59;5094123;28;20096;-75
2022/07/16 10:41:48;;;;;;;2.33;1.13;;;;;;;46.12;7.46;99048.22;5077472;28;20078;-75
2022/07/16 10:44:15;;;;;;;4.53;0.85;;;;;;;44.21;8.37;99053.38;5060214;28;20468;-75
2022/07/16 10:47:10;;;;;;;4.32;0.95;;;;;;;41.88;10.52;99046.91;5060604;28;20047;-77
2022/07/16 10:49:36;;;;;;;2.55;1.20;;;;;;;40.27;11.48;99033.84;5043608;28;20093;-75
2022/07/16 10:52:10;;;;;;;4.45;1.05;;;;;;;39.78;12.08;99028.00;5060903;28;20043;-75
2022/07/16 10:54:40;;;;;;;4.47;1.67;;;;;;;41.14;11.48;99047.78;5077019;28;20074;-74
2022/07/16 10:57:07;;;;;;;4.05;1.20;;;;;;;42.93;10.37;99064.88;5077300;28;20084;-75
2022/07/16 10:59:38;;;;;;;2.22;1.40;;;;;;;43.87;9.72;99055.63;5060575;28;20048;-74
2022/07/16 11:02:06;;;;;;;4.97;1.02;;;;;;;43.65;9.48;99053.09;5093487;28;20039;-75
2022/07/16 11:04:33;;;;;;;2.53;1.00;;;;;;;43.77;9.46;99059.16;5093805;28;20044;-75
2022/07/16 11:07:00;;;;;;;4.30;1.00;;;;;;;42.58;10.32;99070.09;5060277;28;20039;-75
2022/07/16 11:09:34;;;;;;;1.15;0.82;;;;;;;41.51;11.05;99060.75;5093900;28;20419;-74
2022/07/16 11:12:25;;;;;;;2.42;0.80;;;;;;;39.83;12.11;99063.06;5059539;28;20070;-75
2022/07/16 11:14:57;;;;;;;3.30;1.00;;;;;;;38.86;12.45;99051.97;5068203;28;20040;-74
2022/07/16 11:17:25;;;;;;;2.00;0.88;;;;;;;37.74;13.44;99041.25;5060263;28;20134;-75
2022/07/16 11:19:55;;;;;;;3.75;1.02;;;;;;;37.92;13.59;99048.13;5044273;28;20050;-75
2022/07/16 11:22:28;;;;;;;2.83;1.00;;;;;;;37.24;14.27;99052.72;5061276;28;20590;-75
2022/07/16 11:24:59;;;;;;;2.10;1.08;;;;;;;36.35;15.54;99057.53;5094609;28;20039;-74
2022/07/16 11:27:28;;;;;;;3.53;0.80;;;;;;;36.29;15.63;99047.78;5077002;28;20495;-75
2022/07/16 11:30:01;;;;;;;1.85;0.90;;;;;;;36.10;15.50;99056.59;5093679;28;20130;-75
2022/07/16 11:32:31;;;;;;;5.53;0.80;;;;;;;36.03;15.61;99056.31;5093731;28;20047;-76
2022/07/16 11:35:04;;;;;;;2.60;0.95;;;;;;;36.28;16.23;99062.75;5061555;28;20062;-75
2022/07/16 11:37:30;;;;;;;;;;;;;;;35.65;17.01;99058.38;5077592;28;20484;-75
2022/07/16 11:39:59;;;;;;;4.50;1.00;;;;;;;35.19;16.79;99061.25;5043829;28;19955;-74